Anamur, Turkey
Current Conditions -  °F | °C
As of 1:50 AM on Thursday 23 Oct 2014 (Local Time) from LCEN Reporting Station
Scattered Clouds Scattered Clouds  
Wind Chill: 16°   Ceiling: Unl
Heat Index: 16°   Visibility: 6mi
Dew Point: 12°   Wind: 3mph
Humidity: 77%   Direction: 260°W
Pressure: 29.94"   Gusts: NA
Location:  36.08°N, 32.84°E
Report Text: LCEN 222250Z 26003KT 9999 FEW030 SCT160 16/12 Q1014 NOSIG
Loading
Personal Weather Stations






























Interactive Weather Map
Tropical Storm Tracking
New forecast layout! Learn more

10-Day Weather Forecast

Advertisements
Track Severe Weather on mobile